sensor_id;sensor_type;location;lat;lon;timestamp;P1;durP1;ratioP1;P2;durP2;ratioP2
64237;SDS011;57192;41.976;2.828;2022-09-20T00:00:42;0.00;;;0.00;;
64237;SDS011;57192;41.976;2.828;2022-09-20T00:03:08;0.00;;;0.00;;
64237;SDS011;57192;41.976;2.828;2022-09-20T00:05:34;0.10;;;0.10;;
64237;SDS011;57192;41.976;2.828;2022-09-20T00:08:00;0.00;;;0.00;;
64237;SDS011;57192;41.976;2.828;2022-09-20T00:10:25;0.00;;;0.00;;
64237;SDS011;57192;41.976;2.828;2022-09-20T00:12:51;0.00;;;0.00;;
64237;SDS011;57192;41.976;2.828;2022-09-20T00:15:16;0.00;;;0.00;;
64237;SDS011;57192;41.976;2.828;2022-09-20T00:17:42;1.83;;;1.73;;
64237;SDS011;57192;41.976;2.828;2022-09-20T00:20:07;0.00;;;0.00;;
64237;SDS011;57192;41.976;2.828;2022-09-20T00:22:33;0.00;;;0.00;;
64237;SDS011;57192;41.976;2.828;2022-09-20T00:24:58;0.00;;;0.00;;
64237;SDS011;57192;41.976;2.828;2022-09-20T00:27:23;0.27;;;0.27;;
64237;SDS011;57192;41.976;2.828;2022-09-20T00:29:49;0.00;;;0.00;;
64237;SDS011;57192;41.976;2.828;2022-09-20T00:49:39;0.00;;;0.00;;
64237;SDS011;57192;41.976;2.828;2022-09-20T00:52:04;0.00;;;0.00;;
64237;SDS011;57192;41.976;2.828;2022-09-20T00:54:30;0.00;;;0.00;;
64237;SDS011;57192;41.976;2.828;2022-09-20T00:56:55;1.63;;;0.93;;
64237;SDS011;57192;41.976;2.828;2022-09-20T00:59:22;0.00;;;0.00;;
64237;SDS011;57192;41.976;2.828;2022-09-20T01:01:55;0.00;;;0.00;;
64237;SDS011;57192;41.976;2.828;2022-09-20T01:04:22;0.95;;;0.95;;
64237;SDS011;57192;41.976;2.828;2022-09-20T01:06:49;0.10;;;0.10;;
64237;SDS011;57192;41.976;2.828;2022-09-20T01:09:17;0.20;;;0.20;;
64237;SDS011;57192;41.976;2.828;2022-09-20T01:11:42;0.00;;;0.00;;
64237;SDS011;57192;41.976;2.828;2022-09-20T01:14:08;0.00;;;0.00;;
64237;SDS011;57192;41.976;2.828;2022-09-20T01:16:33;0.00;;;0.00;;
64237;SDS011;57192;41.976;2.828;2022-09-20T01:19:00;0.00;;;0.00;;
64237;SDS011;57192;41.976;2.828;2022-09-20T01:21:26;0.00;;;0.00;;
64237;SDS011;57192;41.976;2.828;2022-09-20T01:31:43;0.00;;;0.00;;
64237;SDS011;57192;41.976;2.828;2022-09-20T01:34:10;0.43;;;0.43;;
64237;SDS011;57192;41.976;2.828;2022-09-20T01:39:16;0.30;;;0.30;;
64237;SDS011;57192;41.976;2.828;2022-09-20T01:41:48;0.08;;;0.08;;
64237;SDS011;57192;41.976;2.828;2022-09-20T01:44:28;0.10;;;0.10;;
64237;SDS011;57192;41.976;2.828;2022-09-20T01:47:13;0.00;;;0.00;;
64237;SDS011;57192;41.976;2.828;2022-09-20T01:49:50;0.10;;;0.10;;
64237;SDS011;57192;41.976;2.828;2022-09-20T02:05:08;0.57;;;0.57;;
64237;SDS011;57192;41.976;2.828;2022-09-20T02:12:57;0.05;;;0.05;;
64237;SDS011;57192;41.976;2.828;2022-09-20T02:15:39;0.20;;;0.20;;
64237;SDS011;57192;41.976;2.828;2022-09-20T02:26:04;0.38;;;0.38;;
64237;SDS011;57192;41.976;2.828;2022-09-20T02:39:16;0.00;;;0.00;;
64237;SDS011;57192;41.976;2.828;2022-09-20T02:44:32;0.00;;;0.00;;
64237;SDS011;57192;41.976;2.828;2022-09-20T02:52:35;0.00;;;0.00;;
64237;SDS011;57192;41.976;2.828;2022-09-20T02:55:13;0.32;;;0.32;;
64237;SDS011;57192;41.976;2.828;2022-09-20T02:57:53;0.17;;;0.17;;
64237;SDS011;57192;41.976;2.828;2022-09-20T03:00:22;0.68;;;0.68;;
64237;SDS011;57192;41.976;2.828;2022-09-20T03:08:14;0.00;;;0.00;;
64237;SDS011;57192;41.976;2.828;2022-09-20T03:23:54;0.00;;;0.00;;
64237;SDS011;57192;41.976;2.828;2022-09-20T03:29:00;0.08;;;0.08;;
64237;SDS011;57192;41.976;2.828;2022-09-20T03:39:29;0.30;;;0.30;;
64237;SDS011;57192;41.976;2.828;2022-09-20T03:47:15;0.00;;;0.00;;
64237;SDS011;57192;41.976;2.828;2022-09-20T04:00:20;0.00;;;0.00;;
64237;SDS011;57192;41.976;2.828;2022-09-20T04:03:09;0.20;;;0.20;;
64237;SDS011;57192;41.976;2.828;2022-09-20T04:16:06;0.17;;;0.17;;
64237;SDS011;57192;41.976;2.828;2022-09-20T04:26:19;0.08;;;0.08;;
64237;SDS011;57192;41.976;2.828;2022-09-20T04:28:47;0.00;;;0.00;;
64237;SDS011;57192;41.976;2.828;2022-09-20T04:31:26;0.00;;;0.00;;
64237;SDS011;57192;41.976;2.828;2022-09-20T04:33:54;0.43;;;0.43;;
64237;SDS011;57192;41.976;2.828;2022-09-20T04:52:09;0.00;;;0.00;;
64237;SDS011;57192;41.976;2.828;2022-09-20T04:57:22;0.00;;;0.00;;
64237;SDS011;57192;41.976;2.828;2022-09-20T05:21:44;0.00;;;0.00;;
64237;SDS011;57192;41.976;2.828;2022-09-20T05:29:21;0.00;;;0.00;;
64237;SDS011;57192;41.976;2.828;2022-09-20T05:32:00;0.00;;;0.00;;
64237;SDS011;57192;41.976;2.828;2022-09-20T05:34:32;0.00;;;0.00;;
64237;SDS011;57192;41.976;2.828;2022-09-20T05:37:00;0.00;;;0.00;;
64237;SDS011;57192;41.976;2.828;2022-09-20T05:41:57;0.00;;;0.00;;
64237;SDS011;57192;41.976;2.828;2022-09-20T06:04:22;0.10;;;0.10;;
64237;SDS011;57192;41.976;2.828;2022-09-20T06:09:44;0.00;;;0.00;;
64237;SDS011;57192;41.976;2.828;2022-09-20T06:12:51;0.00;;;0.00;;
64237;SDS011;57192;41.976;2.828;2022-09-20T06:15:27;0.40;;;0.40;;
64237;SDS011;57192;41.976;2.828;2022-09-20T06:18:39;0.47;;;0.47;;
64237;SDS011;57192;41.976;2.828;2022-09-20T06:20:47;0.10;;;0.10;;
64237;SDS011;57192;41.976;2.828;2022-09-20T06:23:14;0.00;;;0.00;;
64237;SDS011;57192;41.976;2.828;2022-09-20T06:30:40;0.00;;;0.00;;
64237;SDS011;57192;41.976;2.828;2022-09-20T06:33:17;0.10;;;0.10;;
64237;SDS011;57192;41.976;2.828;2022-09-20T06:39:13;0.10;;;0.10;;
64237;SDS011;57192;41.976;2.828;2022-09-20T06:41:59;0.35;;;0.35;;
64237;SDS011;57192;41.976;2.828;2022-09-20T06:44:25;0.30;;;0.30;;
64237;SDS011;57192;41.976;2.828;2022-09-20T06:46:50;0.20;;;0.20;;
64237;SDS011;57192;41.976;2.828;2022-09-20T06:49:21;0.20;;;0.20;;
64237;SDS011;57192;41.976;2.828;2022-09-20T06:51:48;0.63;;;0.63;;
64237;SDS011;57192;41.976;2.828;2022-09-20T06:54:18;0.00;;;0.00;;
64237;SDS011;57192;41.976;2.828;2022-09-20T06:56:44;0.00;;;0.00;;
64237;SDS011;57192;41.976;2.828;2022-09-20T06:59:11;0.00;;;0.00;;
64237;SDS011;57192;41.976;2.828;2022-09-20T07:01:37;0.00;;;0.00;;
64237;SDS011;57192;41.976;2.828;2022-09-20T07:04:02;0.00;;;0.00;;
64237;SDS011;57192;41.976;2.828;2022-09-20T07:06:28;0.00;;;0.00;;
64237;SDS011;57192;41.976;2.828;2022-09-20T07:08:53;0.00;;;0.00;;
64237;SDS011;57192;41.976;2.828;2022-09-20T07:11:18;1.97;;;1.57;;
64237;SDS011;57192;41.976;2.828;2022-09-20T07:13:44;0.30;;;0.30;;
64237;SDS011;57192;41.976;2.828;2022-09-20T07:16:13;0.00;;;0.00;;
64237;SDS011;57192;41.976;2.828;2022-09-20T07:18:39;2.50;;;1.83;;
64237;SDS011;57192;41.976;2.828;2022-09-20T07:21:05;0.75;;;0.38;;
64237;SDS011;57192;41.976;2.828;2022-09-20T07:23:30;0.03;;;0.03;;
64237;SDS011;57192;41.976;2.828;2022-09-20T07:25:56;0.00;;;0.00;;
64237;SDS011;57192;41.976;2.828;2022-09-20T07:28:28;0.00;;;0.00;;
64237;SDS011;57192;41.976;2.828;2022-09-20T07:30:54;0.00;;;0.00;;
64237;SDS011;57192;41.976;2.828;2022-09-20T07:33:19;7.93;;;0.43;;
64237;SDS011;57192;41.976;2.828;2022-09-20T07:38:11;0.00;;;0.00;;
64237;SDS011;57192;41.976;2.828;2022-09-20T07:40:36;0.98;;;0.77;;
64237;SDS011;57192;41.976;2.828;2022-09-20T07:43:02;1.50;;;1.40;;
64237;SDS011;57192;41.976;2.828;2022-09-20T07:45:27;0.30;;;0.30;;
64237;SDS011;57192;41.976;2.828;2022-09-20T07:47:53;0.00;;;0.00;;
64237;SDS011;57192;41.976;2.828;2022-09-20T07:50:18;0.10;;;0.10;;
64237;SDS011;57192;41.976;2.828;2022-09-20T07:52:43;0.00;;;0.00;;
64237;SDS011;57192;41.976;2.828;2022-09-20T07:55:09;0.00;;;0.00;;
64237;SDS011;57192;41.976;2.828;2022-09-20T07:57:35;0.27;;;0.27;;
64237;SDS011;57192;41.976;2.828;2022-09-20T08:00:02;0.68;;;0.68;;
64237;SDS011;57192;41.976;2.828;2022-09-20T08:02:27;0.00;;;0.00;;
64237;SDS011;57192;41.976;2.828;2022-09-20T08:04:52;0.00;;;0.00;;
64237;SDS011;57192;41.976;2.828;2022-09-20T08:07:18;0.37;;;0.37;;
64237;SDS011;57192;41.976;2.828;2022-09-20T08:09:43;0.00;;;0.00;;
64237;SDS011;57192;41.976;2.828;2022-09-20T08:12:08;0.13;;;0.13;;
64237;SDS011;57192;41.976;2.828;2022-09-20T08:14:33;0.00;;;0.00;;
64237;SDS011;57192;41.976;2.828;2022-09-20T08:19:24;0.20;;;0.20;;
64237;SDS011;57192;41.976;2.828;2022-09-20T08:24:17;3.97;;;1.10;;
64237;SDS011;57192;41.976;2.828;2022-09-20T08:26:43;0.00;;;0.00;;
64237;SDS011;57192;41.976;2.828;2022-09-20T08:29:08;1.15;;;1.05;;
64237;SDS011;57192;41.976;2.828;2022-09-20T08:31:35;16.75;;;1.55;;
64237;SDS011;57192;41.976;2.828;2022-09-20T08:34:01;2.17;;;0.57;;
64237;SDS011;57192;41.976;2.828;2022-09-20T08:36:28;0.32;;;0.32;;
64237;SDS011;57192;41.976;2.828;2022-09-20T08:38:53;0.20;;;0.10;;
64237;SDS011;57192;41.976;2.828;2022-09-20T08:41:20;0.63;;;0.40;;
64237;SDS011;57192;41.976;2.828;2022-09-20T08:43:53;0.10;;;0.10;;
64237;SDS011;57192;41.976;2.828;2022-09-20T08:46:21;1.08;;;0.65;;
64237;SDS011;57192;41.976;2.828;2022-09-20T08:48:47;0.73;;;0.57;;
64237;SDS011;57192;41.976;2.828;2022-09-20T08:51:13;0.55;;;0.32;;
64237;SDS011;57192;41.976;2.828;2022-09-20T08:53:47;3.30;;;0.52;;
64237;SDS011;57192;41.976;2.828;2022-09-20T08:56:14;0.32;;;0.17;;
64237;SDS011;57192;41.976;2.828;2022-09-20T08:58:39;45.63;;;6.78;;
64237;SDS011;57192;41.976;2.828;2022-09-20T09:01:05;116.85;;;40.33;;
64237;SDS011;57192;41.976;2.828;2022-09-20T09:03:31;78.45;;;20.45;;
64237;SDS011;57192;41.976;2.828;2022-09-20T09:05:56;13.25;;;4.32;;
64237;SDS011;57192;41.976;2.828;2022-09-20T09:08:43;0.05;;;0.05;;
64237;SDS011;57192;41.976;2.828;2022-09-20T09:11:12;0.80;;;0.80;;
64237;SDS011;57192;41.976;2.828;2022-09-20T09:13:53;0.63;;;0.20;;
64237;SDS011;57192;41.976;2.828;2022-09-20T09:16:20;0.22;;;0.22;;
64237;SDS011;57192;41.976;2.828;2022-09-20T09:18:46;1.10;;;0.85;;
64237;SDS011;57192;41.976;2.828;2022-09-20T09:23:52;0.20;;;0.20;;
64237;SDS011;57192;41.976;2.828;2022-09-20T09:26:25;0.43;;;0.40;;
64237;SDS011;57192;41.976;2.828;2022-09-20T09:31:23;0.87;;;0.87;;
64237;SDS011;57192;41.976;2.828;2022-09-20T09:33:49;3.20;;;2.90;;
64237;SDS011;57192;41.976;2.828;2022-09-20T09:36:16;0.00;;;0.00;;
64237;SDS011;57192;41.976;2.828;2022-09-20T09:38:44;0.00;;;0.00;;
64237;SDS011;57192;41.976;2.828;2022-09-20T09:41:29;0.45;;;0.32;;
64237;SDS011;57192;41.976;2.828;2022-09-20T09:46:24;0.00;;;0.00;;
64237;SDS011;57192;41.976;2.828;2022-09-20T09:51:35;0.00;;;0.00;;
64237;SDS011;57192;41.976;2.828;2022-09-20T09:54:01;0.80;;;0.80;;
64237;SDS011;57192;41.976;2.828;2022-09-20T10:01:47;0.00;;;0.00;;
64237;SDS011;57192;41.976;2.828;2022-09-20T10:09:29;0.08;;;0.08;;
64237;SDS011;57192;41.976;2.828;2022-09-20T10:19:57;0.08;;;0.08;;
64237;SDS011;57192;41.976;2.828;2022-09-20T10:48:20;0.00;;;0.00;;
64237;SDS011;57192;41.976;2.828;2022-09-20T10:50:53;0.13;;;0.13;;
64237;SDS011;57192;41.976;2.828;2022-09-20T11:01:31;1.77;;;1.67;;
64237;SDS011;57192;41.976;2.828;2022-09-20T11:06:46;0.00;;;0.00;;
64237;SDS011;57192;41.976;2.828;2022-09-20T11:09:16;0.47;;;0.47;;
64237;SDS011;57192;41.976;2.828;2022-09-20T11:11:46;0.00;;;0.00;;
64237;SDS011;57192;41.976;2.828;2022-09-20T11:14:25;3.40;;;0.50;;
64237;SDS011;57192;41.976;2.828;2022-09-20T11:17:17;0.22;;;0.22;;
64237;SDS011;57192;41.976;2.828;2022-09-20T11:24:59;0.00;;;0.00;;
64237;SDS011;57192;41.976;2.828;2022-09-20T11:27:40;0.65;;;0.40;;
64237;SDS011;57192;41.976;2.828;2022-09-20T11:30:18;0.43;;;0.43;;
64237;SDS011;57192;41.976;2.828;2022-09-20T11:37:48;1.65;;;0.50;;
64237;SDS011;57192;41.976;2.828;2022-09-20T11:42:55;1.20;;;1.10;;
64237;SDS011;57192;41.976;2.828;2022-09-20T11:45:21;0.20;;;0.20;;
64237;SDS011;57192;41.976;2.828;2022-09-20T11:47:48;0.05;;;0.05;;
64237;SDS011;57192;41.976;2.828;2022-09-20T11:58:07;0.20;;;0.20;;
64237;SDS011;57192;41.976;2.828;2022-09-20T12:00:34;1.65;;;0.90;;
64237;SDS011;57192;41.976;2.828;2022-09-20T12:07:54;5.13;;;1.87;;
64237;SDS011;57192;41.976;2.828;2022-09-20T12:12:46;0.00;;;0.00;;
64237;SDS011;57192;41.976;2.828;2022-09-20T12:18:26;0.25;;;0.25;;
64237;SDS011;57192;41.976;2.828;2022-09-20T12:21:12;0.47;;;0.47;;
64237;SDS011;57192;41.976;2.828;2022-09-20T12:28:48;0.25;;;0.25;;
64237;SDS011;57192;41.976;2.828;2022-09-20T12:33:58;0.20;;;0.20;;
64237;SDS011;57192;41.976;2.828;2022-09-20T12:36:24;0.17;;;0.15;;
64237;SDS011;57192;41.976;2.828;2022-09-20T12:38:58;0.85;;;0.85;;
64237;SDS011;57192;41.976;2.828;2022-09-20T12:41:24;0.00;;;0.00;;
64237;SDS011;57192;41.976;2.828;2022-09-20T12:46:22;0.30;;;0.30;;
64237;SDS011;57192;41.976;2.828;2022-09-20T12:48:48;0.10;;;0.08;;
64237;SDS011;57192;41.976;2.828;2022-09-20T12:53:58;0.55;;;0.55;;
64237;SDS011;57192;41.976;2.828;2022-09-20T12:56:24;0.00;;;0.00;;
64237;SDS011;57192;41.976;2.828;2022-09-20T12:58:52;0.52;;;0.35;;
64237;SDS011;57192;41.976;2.828;2022-09-20T13:03:45;0.65;;;0.65;;
64237;SDS011;57192;41.976;2.828;2022-09-20T13:11:09;0.00;;;0.00;;
64237;SDS011;57192;41.976;2.828;2022-09-20T13:16:28;0.30;;;0.30;;
64237;SDS011;57192;41.976;2.828;2022-09-20T13:18:58;0.45;;;0.45;;
64237;SDS011;57192;41.976;2.828;2022-09-20T13:21:25;0.35;;;0.35;;
64237;SDS011;57192;41.976;2.828;2022-09-20T13:23:51;0.63;;;0.38;;
64237;SDS011;57192;41.976;2.828;2022-09-20T13:26:21;0.00;;;0.00;;
64237;SDS011;57192;41.976;2.828;2022-09-20T13:28:49;0.65;;;0.65;;
64237;SDS011;57192;41.976;2.828;2022-09-20T13:31:22;0.00;;;0.00;;
64237;SDS011;57192;41.976;2.828;2022-09-20T13:33:48;0.00;;;0.00;;
64237;SDS011;57192;41.976;2.828;2022-09-20T13:36:14;0.00;;;0.00;;
64237;SDS011;57192;41.976;2.828;2022-09-20T13:38:43;0.00;;;0.00;;
64237;SDS011;57192;41.976;2.828;2022-09-20T13:41:10;0.00;;;0.00;;
64237;SDS011;57192;41.976;2.828;2022-09-20T13:46:09;12.83;;;1.13;;
64237;SDS011;57192;41.976;2.828;2022-09-20T13:48:34;0.88;;;0.75;;
64237;SDS011;57192;41.976;2.828;2022-09-20T13:51:00;0.03;;;0.03;;
64237;SDS011;57192;41.976;2.828;2022-09-20T13:53:26;0.00;;;0.00;;
64237;SDS011;57192;41.976;2.828;2022-09-20T13:55:52;0.20;;;0.20;;
64237;SDS011;57192;41.976;2.828;2022-09-20T13:58:24;0.05;;;0.05;;
64237;SDS011;57192;41.976;2.828;2022-09-20T14:03:16;4.70;;;0.67;;
64237;SDS011;57192;41.976;2.828;2022-09-20T14:05:46;0.00;;;0.00;;
64237;SDS011;57192;41.976;2.828;2022-09-20T14:08:15;0.20;;;0.20;;
64237;SDS011;57192;41.976;2.828;2022-09-20T14:10:44;0.20;;;0.13;;
64237;SDS011;57192;41.976;2.828;2022-09-20T14:13:13;1.77;;;1.35;;
64237;SDS011;57192;41.976;2.828;2022-09-20T14:15:42;0.00;;;0.00;;
64237;SDS011;57192;41.976;2.828;2022-09-20T14:18:15;1.85;;;1.17;;
64237;SDS011;57192;41.976;2.828;2022-09-20T14:20:44;0.20;;;0.20;;
64237;SDS011;57192;41.976;2.828;2022-09-20T14:23:26;0.00;;;0.00;;
64237;SDS011;57192;41.976;2.828;2022-09-20T14:28:35;0.43;;;0.43;;
64237;SDS011;57192;41.976;2.828;2022-09-20T14:31:04;0.10;;;0.10;;
64237;SDS011;57192;41.976;2.828;2022-09-20T14:33:31;0.90;;;0.45;;
64237;SDS011;57192;41.976;2.828;2022-09-20T14:35:56;0.10;;;0.10;;
64237;SDS011;57192;41.976;2.828;2022-09-20T14:38:22;0.00;;;0.00;;
64237;SDS011;57192;41.976;2.828;2022-09-20T14:40:48;0.00;;;0.00;;
64237;SDS011;57192;41.976;2.828;2022-09-20T14:45:51;0.00;;;0.00;;
64237;SDS011;57192;41.976;2.828;2022-09-20T14:50:43;8.70;;;1.07;;
64237;SDS011;57192;41.976;2.828;2022-09-20T14:55:35;0.10;;;0.10;;
64237;SDS011;57192;41.976;2.828;2022-09-20T14:58:11;0.20;;;0.20;;
64237;SDS011;57192;41.976;2.828;2022-09-20T15:03:12;0.22;;;0.22;;
64237;SDS011;57192;41.976;2.828;2022-09-20T15:05:38;0.00;;;0.00;;
64237;SDS011;57192;41.976;2.828;2022-09-20T15:08:03;0.43;;;0.43;;
64237;SDS011;57192;41.976;2.828;2022-09-20T15:10:35;0.00;;;0.00;;
64237;SDS011;57192;41.976;2.828;2022-09-20T15:13:01;0.37;;;0.37;;
64237;SDS011;57192;41.976;2.828;2022-09-20T15:15:26;0.30;;;0.30;;
64237;SDS011;57192;41.976;2.828;2022-09-20T15:17:51;0.17;;;0.17;;
64237;SDS011;57192;41.976;2.828;2022-09-20T15:20:18;0.00;;;0.00;;
64237;SDS011;57192;41.976;2.828;2022-09-20T15:22:45;1.15;;;1.15;;
64237;SDS011;57192;41.976;2.828;2022-09-20T15:25:11;0.00;;;0.00;;
64237;SDS011;57192;41.976;2.828;2022-09-20T15:27:37;0.00;;;0.00;;
64237;SDS011;57192;41.976;2.828;2022-09-20T15:30:03;0.00;;;0.00;;
64237;SDS011;57192;41.976;2.828;2022-09-20T15:32:28;0.00;;;0.00;;
64237;SDS011;57192;41.976;2.828;2022-09-20T15:34:54;0.27;;;0.27;;
64237;SDS011;57192;41.976;2.828;2022-09-20T15:37:19;0.00;;;0.00;;
64237;SDS011;57192;41.976;2.828;2022-09-20T15:39:44;0.13;;;0.13;;
64237;SDS011;57192;41.976;2.828;2022-09-20T15:42:10;0.00;;;0.00;;
64237;SDS011;57192;41.976;2.828;2022-09-20T15:44:35;0.23;;;0.23;;
64237;SDS011;57192;41.976;2.828;2022-09-20T15:47:00;0.20;;;0.20;;
64237;SDS011;57192;41.976;2.828;2022-09-20T15:49:27;0.00;;;0.00;;
64237;SDS011;57192;41.976;2.828;2022-09-20T15:51:55;0.75;;;0.75;;
64237;SDS011;57192;41.976;2.828;2022-09-20T15:54:21;0.28;;;0.28;;
64237;SDS011;57192;41.976;2.828;2022-09-20T15:56:46;0.00;;;0.00;;
64237;SDS011;57192;41.976;2.828;2022-09-20T15:59:11;1.03;;;0.27;;
64237;SDS011;57192;41.976;2.828;2022-09-20T16:01:42;0.00;;;0.00;;
64237;SDS011;57192;41.976;2.828;2022-09-20T16:04:09;0.00;;;0.00;;
64237;SDS011;57192;41.976;2.828;2022-09-20T16:06:35;0.10;;;0.10;;
64237;SDS011;57192;41.976;2.828;2022-09-20T16:09:01;0.00;;;0.00;;
64237;SDS011;57192;41.976;2.828;2022-09-20T16:11:27;0.10;;;0.10;;
64237;SDS011;57192;41.976;2.828;2022-09-20T16:13:53;0.00;;;0.00;;
64237;SDS011;57192;41.976;2.828;2022-09-20T16:16:18;3.33;;;0.90;;
64237;SDS011;57192;41.976;2.828;2022-09-20T16:18:44;0.00;;;0.00;;
64237;SDS011;57192;41.976;2.828;2022-09-20T16:21:28;0.05;;;0.05;;
64237;SDS011;57192;41.976;2.828;2022-09-20T16:23:54;0.00;;;0.00;;
64237;SDS011;57192;41.976;2.828;2022-09-20T16:26:19;0.75;;;0.47;;
64237;SDS011;57192;41.976;2.828;2022-09-20T16:28:45;0.00;;;0.00;;
64237;SDS011;57192;41.976;2.828;2022-09-20T16:31:31;0.00;;;0.00;;
64237;SDS011;57192;41.976;2.828;2022-09-20T16:33:57;0.00;;;0.00;;
64237;SDS011;57192;41.976;2.828;2022-09-20T16:36:22;0.00;;;0.00;;
64237;SDS011;57192;41.976;2.828;2022-09-20T16:38:50;0.13;;;0.13;;
64237;SDS011;57192;41.976;2.828;2022-09-20T16:41:16;0.00;;;0.00;;
64237;SDS011;57192;41.976;2.828;2022-09-20T16:43:41;0.00;;;0.00;;
64237;SDS011;57192;41.976;2.828;2022-09-20T16:46:06;3.10;;;1.50;;
64237;SDS011;57192;41.976;2.828;2022-09-20T16:48:33;0.15;;;0.15;;
64237;SDS011;57192;41.976;2.828;2022-09-20T16:50:58;0.00;;;0.00;;
64237;SDS011;57192;41.976;2.828;2022-09-20T16:53:24;0.10;;;0.10;;
64237;SDS011;57192;41.976;2.828;2022-09-20T16:55:49;0.00;;;0.00;;
64237;SDS011;57192;41.976;2.828;2022-09-20T16:58:16;0.00;;;0.00;;
64237;SDS011;57192;41.976;2.828;2022-09-20T17:00:41;0.00;;;0.00;;
64237;SDS011;57192;41.976;2.828;2022-09-20T17:03:06;0.00;;;0.00;;
64237;SDS011;57192;41.976;2.828;2022-09-20T17:05:32;0.00;;;0.00;;
64237;SDS011;57192;41.976;2.828;2022-09-20T17:07:57;0.00;;;0.00;;
64237;SDS011;57192;41.976;2.828;2022-09-20T17:10:24;1.05;;;1.00;;
64237;SDS011;57192;41.976;2.828;2022-09-20T17:12:52;0.40;;;0.40;;
64237;SDS011;57192;41.976;2.828;2022-09-20T17:15:21;0.03;;;0.03;;
64237;SDS011;57192;41.976;2.828;2022-09-20T17:17:46;0.00;;;0.00;;
64237;SDS011;57192;41.976;2.828;2022-09-20T17:20:12;0.00;;;0.00;;
64237;SDS011;57192;41.976;2.828;2022-09-20T17:22:37;0.10;;;0.10;;
64237;SDS011;57192;41.976;2.828;2022-09-20T17:25:03;0.00;;;0.00;;
64237;SDS011;57192;41.976;2.828;2022-09-20T17:27:28;0.77;;;0.77;;
64237;SDS011;57192;41.976;2.828;2022-09-20T17:29:54;0.17;;;0.17;;
64237;SDS011;57192;41.976;2.828;2022-09-20T17:32:19;0.00;;;0.00;;
64237;SDS011;57192;41.976;2.828;2022-09-20T17:34:45;0.00;;;0.00;;
64237;SDS011;57192;41.976;2.828;2022-09-20T17:37:10;0.00;;;0.00;;
64237;SDS011;57192;41.976;2.828;2022-09-20T17:39:35;0.00;;;0.00;;
64237;SDS011;57192;41.976;2.828;2022-09-20T17:42:00;0.00;;;0.00;;
64237;SDS011;57192;41.976;2.828;2022-09-20T17:44:26;0.00;;;0.00;;
64237;SDS011;57192;41.976;2.828;2022-09-20T17:46:51;0.03;;;0.03;;
64237;SDS011;57192;41.976;2.828;2022-09-20T17:49:19;0.10;;;0.10;;
64237;SDS011;57192;41.976;2.828;2022-09-20T17:51:48;0.60;;;0.57;;
64237;SDS011;57192;41.976;2.828;2022-09-20T17:54:14;0.03;;;0.03;;
64237;SDS011;57192;41.976;2.828;2022-09-20T17:56:43;0.53;;;0.50;;
64237;SDS011;57192;41.976;2.828;2022-09-20T17:59:09;0.00;;;0.00;;
64237;SDS011;57192;41.976;2.828;2022-09-20T18:01:35;0.00;;;0.00;;
64237;SDS011;57192;41.976;2.828;2022-09-20T18:06:28;0.00;;;0.00;;
64237;SDS011;57192;41.976;2.828;2022-09-20T18:11:19;0.00;;;0.00;;
64237;SDS011;57192;41.976;2.828;2022-09-20T18:13:45;0.30;;;0.30;;
64237;SDS011;57192;41.976;2.828;2022-09-20T18:16:13;1.13;;;0.77;;
64237;SDS011;57192;41.976;2.828;2022-09-20T18:18:38;0.00;;;0.00;;
64237;SDS011;57192;41.976;2.828;2022-09-20T18:21:08;0.00;;;0.00;;
64237;SDS011;57192;41.976;2.828;2022-09-20T18:23:33;0.00;;;0.00;;
64237;SDS011;57192;41.976;2.828;2022-09-20T18:26:04;0.00;;;0.00;;
64237;SDS011;57192;41.976;2.828;2022-09-20T18:31:19;0.30;;;0.30;;
64237;SDS011;57192;41.976;2.828;2022-09-20T18:33:44;0.00;;;0.00;;
64237;SDS011;57192;41.976;2.828;2022-09-20T18:36:10;0.00;;;0.00;;
64237;SDS011;57192;41.976;2.828;2022-09-20T18:38:35;0.00;;;0.00;;
64237;SDS011;57192;41.976;2.828;2022-09-20T18:41:01;2.47;;;0.93;;
64237;SDS011;57192;41.976;2.828;2022-09-20T18:43:27;0.00;;;0.00;;
64237;SDS011;57192;41.976;2.828;2022-09-20T18:45:54;0.00;;;0.00;;
64237;SDS011;57192;41.976;2.828;2022-09-20T18:48:20;0.03;;;0.03;;
64237;SDS011;57192;41.976;2.828;2022-09-20T18:53:23;0.20;;;0.20;;
64237;SDS011;57192;41.976;2.828;2022-09-20T18:55:48;0.00;;;0.00;;
64237;SDS011;57192;41.976;2.828;2022-09-20T18:58:18;0.10;;;0.10;;
64237;SDS011;57192;41.976;2.828;2022-09-20T19:00:43;0.00;;;0.00;;
64237;SDS011;57192;41.976;2.828;2022-09-20T19:03:20;0.20;;;0.10;;
64237;SDS011;57192;41.976;2.828;2022-09-20T19:05:50;0.00;;;0.00;;
64237;SDS011;57192;41.976;2.828;2022-09-20T19:08:27;0.00;;;0.00;;
64237;SDS011;57192;41.976;2.828;2022-09-20T19:10:59;0.20;;;0.20;;
64237;SDS011;57192;41.976;2.828;2022-09-20T19:26:21;0.00;;;0.00;;
64237;SDS011;57192;41.976;2.828;2022-09-20T19:28:47;0.00;;;0.00;;
64237;SDS011;57192;41.976;2.828;2022-09-20T19:33:47;0.00;;;0.00;;
64237;SDS011;57192;41.976;2.828;2022-09-20T19:36:14;0.00;;;0.00;;
64237;SDS011;57192;41.976;2.828;2022-09-20T19:38:45;0.00;;;0.00;;
64237;SDS011;57192;41.976;2.828;2022-09-20T19:48:39;0.00;;;0.00;;
64237;SDS011;57192;41.976;2.828;2022-09-20T19:51:06;0.00;;;0.00;;
64237;SDS011;57192;41.976;2.828;2022-09-20T19:53:34;0.00;;;0.00;;
64237;SDS011;57192;41.976;2.828;2022-09-20T19:56:01;0.00;;;0.00;;
64237;SDS011;57192;41.976;2.828;2022-09-20T19:58:28;0.00;;;0.00;;
64237;SDS011;57192;41.976;2.828;2022-09-20T20:00:53;0.00;;;0.00;;
64237;SDS011;57192;41.976;2.828;2022-09-20T20:03:19;0.23;;;0.23;;
64237;SDS011;57192;41.976;2.828;2022-09-20T20:05:51;0.17;;;0.17;;
64237;SDS011;57192;41.976;2.828;2022-09-20T20:08:21;0.00;;;0.00;;
64237;SDS011;57192;41.976;2.828;2022-09-20T20:13:50;0.00;;;0.00;;
64237;SDS011;57192;41.976;2.828;2022-09-20T20:19:12;0.00;;;0.00;;
64237;SDS011;57192;41.976;2.828;2022-09-20T20:21:50;0.30;;;0.30;;
64237;SDS011;57192;41.976;2.828;2022-09-20T20:27:01;0.00;;;0.00;;
64237;SDS011;57192;41.976;2.828;2022-09-20T20:29:26;0.10;;;0.10;;
64237;SDS011;57192;41.976;2.828;2022-09-20T20:31:52;0.00;;;0.00;;
64237;SDS011;57192;41.976;2.828;2022-09-20T20:34:17;0.00;;;0.00;;
64237;SDS011;57192;41.976;2.828;2022-09-20T20:36:44;0.00;;;0.00;;
64237;SDS011;57192;41.976;2.828;2022-09-20T20:39:10;0.20;;;0.20;;
64237;SDS011;57192;41.976;2.828;2022-09-20T20:41:35;0.10;;;0.10;;
64237;SDS011;57192;41.976;2.828;2022-09-20T20:44:00;1.20;;;1.07;;
64237;SDS011;57192;41.976;2.828;2022-09-20T20:46:30;0.00;;;0.00;;
64237;SDS011;57192;41.976;2.828;2022-09-20T20:48:56;0.00;;;0.00;;
64237;SDS011;57192;41.976;2.828;2022-09-20T20:51:22;0.00;;;0.00;;
64237;SDS011;57192;41.976;2.828;2022-09-20T20:53:48;0.00;;;0.00;;
64237;SDS011;57192;41.976;2.828;2022-09-20T20:56:18;0.00;;;0.00;;
64237;SDS011;57192;41.976;2.828;2022-09-20T20:58:44;0.00;;;0.00;;
64237;SDS011;57192;41.976;2.828;2022-09-20T21:03:38;0.00;;;0.00;;
64237;SDS011;57192;41.976;2.828;2022-09-20T21:06:05;0.00;;;0.00;;
64237;SDS011;57192;41.976;2.828;2022-09-20T21:08:31;0.53;;;0.30;;
64237;SDS011;57192;41.976;2.828;2022-09-20T21:10:58;0.03;;;0.03;;
64237;SDS011;57192;41.976;2.828;2022-09-20T21:13:24;0.00;;;0.00;;
64237;SDS011;57192;41.976;2.828;2022-09-20T21:15:49;0.00;;;0.00;;
64237;SDS011;57192;41.976;2.828;2022-09-20T21:18:14;0.00;;;0.00;;
64237;SDS011;57192;41.976;2.828;2022-09-20T21:20:39;0.00;;;0.00;;
64237;SDS011;57192;41.976;2.828;2022-09-20T21:23:05;1.40;;;1.30;;
64237;SDS011;57192;41.976;2.828;2022-09-20T21:25:30;0.00;;;0.00;;
64237;SDS011;57192;41.976;2.828;2022-09-20T21:27:55;0.30;;;0.30;;
64237;SDS011;57192;41.976;2.828;2022-09-20T21:30:23;0.57;;;0.57;;
64237;SDS011;57192;41.976;2.828;2022-09-20T21:32:48;0.00;;;0.00;;
64237;SDS011;57192;41.976;2.828;2022-09-20T21:35:13;1.00;;;0.57;;
64237;SDS011;57192;41.976;2.828;2022-09-20T21:37:39;0.00;;;0.00;;